° 3
SULAYMANIYAH INTERNATIONAL AIRPORT
  • SulyAir
  • SulyAir
1 1
Arrival

ArrivalsMore >>

Departure

DeparturesMore >>

TAF

TAF ORSU 182300Z 1900/1924 VRB04KT 8000 NSC
BECMG 1907/1909 24010KT 9999 SCT040
TEMPO 1915/1924 30005KT 8000 -RA BKN045 BKN070=

METARs

METAR ORSU 190100Z 36004KT CAVOK 01/01 Q1021=